Time;durP1;ratioP1;P1;durP2;ratioP2;P2;SDS_P1;SDS_P2;PMS_P1;PMS_P2;Temp;Humidity;BMP_temperature;BMP_pressure;BME280_temperature;BME280_humidity;BME280_pressure;Samples;Min_cycle;Max_cycle;Signal;HPM_P1;HPM_P2
2022/05/28 00:00:28;;;;;;;4.97;2.20;;;;;;;21.22;53.07;101001.53;2497698;23;20381;-64
2022/05/28 00:01:28;;;;;;;4.90;2.00;;;;;;;21.16;53.31;101006.34;2497893;23;20157;-64
2022/05/28 00:02:29;;;;;;;3.97;2.00;;;;;;;21.23;53.65;101015.13;2497352;23;20148;-64
2022/05/28 00:03:30;;;;;;;4.27;2.13;;;;;;;21.29;53.29;101027.22;2497678;23;20675;-64
2022/05/28 00:04:31;;;;;;;5.90;1.97;;;;;;;21.25;53.27;101037.19;2497649;23;20184;-64
2022/05/28 00:05:32;;;;;;;3.60;1.83;;;;;;;21.28;52.99;101027.75;2497735;23;20377;-64
2022/05/28 00:06:34;;;;;;;4.70;2.03;;;;;;;21.21;53.23;101005.63;2497377;23;20175;-64
2022/05/28 00:07:35;;;;;;;8.90;2.30;;;;;;;21.34;53.11;101025.75;2497693;23;20377;-64
2022/05/28 00:08:35;;;;;;;6.60;2.27;;;;;;;21.39;54.18;101027.88;2497612;23;20465;-64
2022/05/28 00:09:36;;;;;;;8.23;2.37;;;;;;;21.42;56.02;101035.31;2497505;23;20584;-64
2022/05/28 00:10:37;;;;;;;5.27;2.33;;;;;;;21.41;56.72;101037.38;2497571;23;20232;-64
2022/05/28 00:11:43;;;;;;;5.73;2.30;;;;;;;21.45;57.62;101028.69;2497540;23;20236;-64
2022/05/28 00:12:44;;;;;;;7.10;2.70;;;;;;;21.40;57.92;101020.94;2497628;23;20365;-64
2022/05/28 00:13:45;;;;;;;6.33;2.50;;;;;;;21.38;57.88;101020.66;2496741;23;20392;-65
2022/05/28 00:14:46;;;;;;;5.43;2.50;;;;;;;21.31;57.80;101015.47;2484892;23;20640;-65
2022/05/28 00:15:46;;;;;;;8.63;2.70;;;;;;;21.00;58.48;100973.13;2496707;23;20788;-64
2022/05/28 00:16:47;;;;;;;7.60;2.70;;;;;;;21.18;59.32;101003.81;2497247;23;20153;-65
2022/05/28 00:17:48;;;;;;;6.50;2.40;;;;;;;20.91;59.92;100979.69;2497616;23;20178;-64
2022/05/28 00:18:49;;;;;;;4.83;2.60;;;;;;;21.07;60.37;100998.81;2497551;23;20634;-64
2022/05/28 00:19:51;;;;;;;6.87;2.77;;;;;;;20.67;60.36;100948.13;2497471;23;20409;-64
2022/05/28 00:20:51;;;;;;;5.27;2.43;;;;;;;20.89;60.24;100981.41;2497559;23;20408;-65
2022/05/28 00:21:52;;;;;;;8.90;2.97;;;;;;;20.86;59.63;100993.66;2497769;23;20376;-64
2022/05/28 00:22:52;;;;;;;5.80;2.53;;;;;;;20.92;60.92;100991.72;2497382;23;20148;-64
2022/05/28 00:23:53;;;;;;;5.50;2.53;;;;;;;20.84;61.10;100990.56;2497440;23;20152;-65
2022/05/28 00:24:55;;;;;;;8.13;2.70;;;;;;;20.91;61.71;100993.75;2497587;23;20153;-64
2022/05/28 00:25:56;;;;;;;5.40;2.70;;;;;;;20.85;62.13;100978.03;2496763;23;20228;-65
2022/05/28 00:26:56;;;;;;;6.83;3.27;;;;;;;20.43;62.31;100922.25;2496560;23;20384;-64
2022/05/28 00:27:57;;;;;;;7.80;2.80;;;;;;;21.01;62.59;100989.53;2497502;23;20157;-64
2022/05/28 00:28:58;;;;;;;6.97;3.33;;;;;;;21.00;62.42;100993.63;2497146;23;20153;-65
2022/05/28 00:29:58;;;;;;;8.60;3.20;;;;;;;21.03;61.95;100991.84;2496946;23;20235;-65
2022/05/28 00:31:00;;;;;;;5.37;2.90;;;;;;;21.06;62.64;100997.28;2496203;23;20548;-64
2022/05/28 00:32:01;;;;;;;5.57;2.73;;;;;;;21.13;63.45;101002.47;2496816;23;20622;-64
2022/05/28 00:33:02;;;;;;;4.33;3.13;;;;;;;20.98;63.59;100981.31;2497420;23;20837;-64
2022/05/28 00:34:03;;;;;;;6.20;2.93;;;;;;;21.00;64.35;100978.75;2497800;23;20235;-65
2022/05/28 00:35:05;;;;;;;6.40;3.67;;;;;;;20.87;63.87;100961.44;2497560;23;20436;-64
2022/05/28 00:36:09;;;;;;;7.27;3.63;;;;;;;20.77;63.87;100938.25;2497617;23;20153;-64
2022/05/28 00:37:09;;;;;;;7.20;3.97;;;;;;;21.17;63.84;101003.03;2497432;23;20786;-64
2022/05/28 00:38:10;;;;;;;10.17;4.17;;;;;;;21.16;63.97;101004.31;2497462;23;20400;-65
2022/05/28 00:39:10;;;;;;;7.87;4.17;;;;;;;21.07;64.41;100986.75;2497581;23;20153;-64
2022/05/28 00:40:21;;;;;;;14.43;4.20;;;;;;;21.13;64.73;100982.75;2497446;23;20156;-64
2022/05/28 00:41:21;;;;;;;11.00;4.10;;;;;;;21.24;64.98;101011.03;2497624;23;20140;-64
2022/05/28 00:42:22;;;;;;;7.97;4.10;;;;;;;21.29;64.88;101018.03;2497560;23;20525;-65
2022/05/28 00:43:24;;;;;;;9.70;4.13;;;;;;;20.92;64.99;100930.50;2497595;23;20176;-65
2022/05/28 00:44:25;;;;;;;10.10;4.70;;;;;;;21.32;65.05;101000.09;2496734;23;20161;-64
2022/05/28 00:45:27;;;;;;;9.90;4.63;;;;;;;20.92;65.59;100938.97;2496980;23;20381;-65
2022/05/28 00:46:27;;;;;;;11.13;4.73;;;;;;;21.13;65.46;100970.72;2497504;23;20556;-64
2022/05/28 00:47:28;;;;;;;7.13;4.80;;;;;;;21.33;65.85;100990.38;2497561;23;20464;-65
2022/05/28 00:48:32;;;;;;;10.27;4.60;;;;;;;21.32;66.06;100992.44;2497826;23;20163;-65
2022/05/28 00:49:34;;;;;;;8.70;4.80;;;;;;;20.91;67.07;100933.81;2497714;23;20160;-65
2022/05/28 00:50:36;;;;;;;7.53;4.60;;;;;;;21.23;66.80;100983.38;2497634;23;20378;-65
2022/05/28 00:51:42;;;;;;;7.47;4.80;;;;;;;20.84;66.96;100917.34;2497855;23;20373;-66
2022/05/28 00:52:43;;;;;;;10.63;4.40;;;;;;;21.29;66.77;100987.78;2497479;23;20373;-65
2022/05/28 00:53:44;;;;;;;7.53;4.67;;;;;;;21.36;67.40;100987.34;2497660;23;20377;-65
2022/05/28 00:54:47;;;;;;;13.37;5.10;;;;;;;20.95;67.77;100934.38;2496583;23;20541;-65
2022/05/28 00:55:48;;;;;;;9.57;5.50;;;;;;;21.43;68.32;100992.53;2496857;23;20383;-65
2022/05/28 00:56:49;;;;;;;9.97;5.10;;;;;;;21.09;68.93;100945.53;2497416;23;20391;-65
2022/05/28 00:57:50;;;;;;;10.90;4.60;;;;;;;21.43;68.93;100995.34;2497506;23;20152;-65
2022/05/28 00:58:51;;;;;;;11.60;5.07;;;;;;;21.43;68.33;100986.09;2497315;23;20381;-65
2022/05/28 00:59:52;;;;;;;10.93;5.43;;;;;;;21.27;69.40;100953.69;2497422;23;20180;-65
2022/05/28 01:00:52;;;;;;;8.63;4.50;;;;;;;21.45;69.57;100987.16;2497499;23;20678;-65
2022/05/28 01:01:58;;;;;;;11.57;5.27;;;;;;;21.34;70.22;100989.88;2497406;23;20152;-65
2022/05/28 01:03:04;;;;;;;9.03;5.70;;;;;;;21.25;70.67;100992.88;2497219;23;20188;-65
2022/05/28 01:04:17;;;;;;;11.50;5.37;;;;;;;21.29;71.04;100998.28;2497432;23;20396;-65
2022/05/28 01:05:32;;;;;;;11.43;5.43;;;;;;;20.85;71.52;100927.31;2497547;23;20448;-65
2022/05/28 01:07:05;;;;;;;10.23;5.43;;;;;;;21.39;71.58;100980.69;2496987;23;20440;-65
2022/05/28 01:08:14;;;;;;;10.90;5.37;;;;;;;21.42;71.79;100973.28;2497235;23;20365;-65
2022/05/28 01:09:39;;;;;;;12.50;5.60;;;;;;;21.42;71.75;100974.06;2496368;23;20472;-65
2022/05/28 01:11:06;;;;;;;11.73;4.90;;;;;;;21.39;71.95;100977.88;2496727;23;20369;-65
2022/05/28 01:12:26;;;;;;;12.77;5.53;;;;;;;21.39;71.77;100960.19;2497183;23;20365;-65
2022/05/28 01:13:53;;;;;;;10.00;5.80;;;;;;;21.38;72.51;100972.72;2496254;23;20484;-66
2022/05/28 01:15:09;;;;;;;9.37;5.43;;;;;;;21.37;72.62;100966.34;2496789;23;20365;-65
2022/05/28 01:16:22;;;;;;;11.53;5.63;;;;;;;20.94;72.70;100901.84;2496330;23;20391;-65
2022/05/28 01:17:53;;;;;;;9.47;5.43;;;;;;;21.05;73.20;100941.41;2496674;23;20848;-65
2022/05/28 01:19:02;;;;;;;10.40;5.97;;;;;;;21.23;73.13;100955.94;2496632;23;20480;-65
2022/05/28 01:20:11;;;;;;;13.63;5.47;;;;;;;21.10;73.27;100940.69;2496948;23;20433;-66
2022/05/28 01:21:42;;;;;;;10.50;5.67;;;;;;;21.28;73.20;100960.09;2497164;23;20369;-66
2022/05/28 01:22:52;;;;;;;9.07;5.20;;;;;;;21.33;73.52;100965.78;2497224;23;20371;-66
2022/05/28 01:24:13;;;;;;;12.40;6.00;;;;;;;21.32;73.61;100969.88;2497296;23;20365;-66
2022/05/28 01:25:28;;;;;;;13.37;5.60;;;;;;;21.35;73.89;100977.31;2497050;23;20372;-66
2022/05/28 01:26:46;;;;;;;10.90;5.83;;;;;;;21.00;73.68;100931.63;2496153;23;20373;-66
2022/05/28 01:27:51;;;;;;;10.07;5.87;;;;;;;21.44;73.87;100988.44;2487859;23;20432;-66
2022/05/28 01:28:57;;;;;;;9.50;5.30;;;;;;;21.38;73.50;100989.63;2496696;23;20391;-66
2022/05/28 01:30:03;;;;;;;8.77;5.27;;;;;;;20.81;73.35;100915.50;2497195;23;20836;-66
2022/05/28 01:31:06;;;;;;;10.73;5.63;;;;;;;21.38;73.49;100998.09;2497271;23;20385;-66
2022/05/28 01:32:08;;;;;;;11.53;5.40;;;;;;;21.01;73.07;100940.84;2497369;23;20393;-66
2022/05/28 01:33:11;;;;;;;9.73;5.40;;;;;;;21.02;73.21;100962.91;2497104;23;20431;-66
2022/05/28 01:34:14;;;;;;;13.87;5.23;;;;;;;21.29;72.07;100995.47;2497258;23;20388;-66
2022/05/28 01:35:17;;;;;;;11.57;5.60;;;;;;;21.17;71.75;100990.97;2497359;23;20903;-66
2022/05/28 01:36:19;;;;;;;8.93;5.53;;;;;;;21.05;71.87;100989.31;2497235;23;20460;-66
2022/05/28 01:37:21;;;;;;;11.67;5.37;;;;;;;20.71;72.06;100942.25;2497204;23;20381;-66
2022/05/28 01:38:23;;;;;;;8.97;5.03;;;;;;;21.07;71.78;100993.19;2497299;23;20946;-66
2022/05/28 01:39:24;;;;;;;8.67;4.80;;;;;;;21.03;71.95;101003.13;2497246;23;20384;-66
2022/05/28 01:40:27;;;;;;;10.47;5.00;;;;;;;20.86;71.63;100980.34;2497181;23;20385;-66
2022/05/28 01:41:31;;;;;;;9.07;5.33;;;;;;;20.92;71.23;100983.25;2497963;23;20401;-65
2022/05/28 01:42:33;;;;;;;11.20;5.73;;;;;;;20.95;71.55;100994.34;2497173;23;20393;-65
2022/05/28 01:43:40;;;;;;;11.20;5.40;;;;;;;20.84;71.99;100991.34;2485719;23;20394;-65
2022/05/28 01:44:44;;;;;;;8.57;4.80;;;;;;;20.80;71.35;101004.88;2497114;23;20440;-65
2022/05/28 01:45:47;;;;;;;11.17;5.23;;;;;;;20.74;71.13;100997.63;2497205;23;20405;-65
2022/05/28 01:46:48;;;;;;;10.37;4.93;;;;;;;20.71;71.19;100996.56;2497097;23;20377;-65
2022/05/28 01:47:51;;;;;;;9.80;5.00;;;;;;;20.71;71.34;101004.22;2498065;23;20391;-66
2022/05/28 01:48:54;;;;;;;9.97;5.67;;;;;;;20.73;71.81;100998.88;2498015;23;20395;-65
2022/05/28 01:49:57;;;;;;;7.97;5.33;;;;;;;20.79;72.35;101016.63;2498068;23;20388;-65
2022/05/28 01:51:00;;;;;;;10.03;6.00;;;;;;;20.12;72.60;100921.31;2498037;23;20783;-65
2022/05/28 01:52:02;;;;;;;9.87;5.80;;;;;;;20.75;73.08;101016.84;2498106;23;20377;-65
2022/05/28 01:53:07;;;;;;;9.97;5.13;;;;;;;20.78;72.64;101027.09;2497203;23;20429;-65
2022/05/28 01:54:12;;;;;;;13.07;5.93;;;;;;;20.01;72.31;100926.75;2486346;23;20505;-65
2022/05/28 01:55:17;;;;;;;10.87;5.37;;;;;;;20.09;72.44;100973.69;2497323;23;20392;-65
2022/05/28 01:56:17;;;;;;;10.97;5.57;;;;;;;20.55;72.85;101033.72;2497872;23;20775;-65
2022/05/28 01:57:18;;;;;;;12.07;5.67;;;;;;;20.26;72.81;100971.88;2497939;23;20401;-65
2022/05/28 01:58:18;;;;;;;15.73;6.10;;;;;;;19.49;72.97;100849.78;2498135;23;20508;-65
2022/05/28 01:59:30;;;;;;;11.83;6.20;;;;;;;20.67;73.54;101026.22;2496979;23;20176;-65
2022/05/28 02:00:31;;;;;;;12.87;5.50;;;;;;;20.72;73.74;101028.31;2497632;23;20137;-65
2022/05/28 02:01:31;;;;;;;12.50;6.07;;;;;;;20.76;73.37;101032.47;2498044;23;20906;-65
2022/05/28 02:02:32;;;;;;;12.60;5.60;;;;;;;20.77;73.12;101030.44;2497732;23;20507;-65
2022/05/28 02:03:35;;;;;;;10.43;5.60;;;;;;;20.79;72.94;101020.22;2497978;23;20136;-65
2022/05/28 02:04:38;;;;;;;12.97;5.93;;;;;;;20.43;72.86;100966.50;2497818;23;20152;-65
2022/05/28 02:05:39;;;;;;;13.37;5.80;;;;;;;20.78;72.74;101003.81;2498012;23;20380;-64
2022/05/28 02:06:41;;;;;;;11.40;5.77;;;;;;;20.74;72.36;100984.31;2497769;23;20381;-65
2022/05/28 02:07:41;;;;;;;13.80;5.57;;;;;;;20.89;72.47;101006.78;2508873;23;20166;-65
2022/05/28 02:08:44;;;;;;;13.60;5.53;;;;;;;20.90;72.04;100999.88;2509081;23;20372;-65
2022/05/28 02:09:49;;;;;;;12.93;5.50;;;;;;;20.97;71.85;101002.28;2497989;23;20211;-65
2022/05/28 02:10:58;;;;;;;14.47;5.93;;;;;;;20.67;71.89;100965.00;2497108;23;20396;-65
2022/05/28 02:12:11;;;;;;;14.23;5.17;;;;;;;21.07;71.49;101012.13;2497587;23;21020;-65
2022/05/28 02:13:23;;;;;;;13.73;5.83;;;;;;;21.12;71.55;101012.19;2497921;23;20421;-65
2022/05/28 02:14:33;;;;;;;11.87;5.47;;;;;;;21.15;71.11;101010.44;2498103;23;20711;-65
2022/05/28 02:15:44;;;;;;;13.43;5.63;;;;;;;21.21;71.16;101011.25;2498136;23;20821;-65
2022/05/28 02:17:05;;;;;;;13.90;5.77;;;;;;;20.74;71.58;100941.28;2497988;23;20388;-65
2022/05/28 02:18:22;;;;;;;11.50;5.80;;;;;;;21.26;71.83;101030.28;2498153;23;20368;-65
2022/05/28 02:19:41;;;;;;;12.03;5.90;;;;;;;21.17;72.49;101013.50;2497991;23;20428;-65
2022/05/28 02:21:07;;;;;;;16.00;5.67;;;;;;;19.97;72.32;100833.34;2497971;23;20399;-65
2022/05/28 02:22:19;;;;;;;12.80;5.70;;;;;;;21.33;71.54;101038.31;2497977;23;20385;-65
2022/05/28 02:23:43;;;;;;;15.13;5.83;;;;;;;20.79;71.88;100983.63;2498069;23;20361;-65
2022/05/28 02:24:51;;;;;;;13.27;5.73;;;;;;;21.11;71.92;101047.28;2498167;23;20431;-66
2022/05/28 02:26:00;;;;;;;13.13;5.40;;;;;;;20.76;72.17;101009.16;2497926;23;20365;-65
2022/05/28 02:27:06;;;;;;;10.80;5.00;;;;;;;21.25;71.87;101087.94;2497707;23;20369;-65
2022/05/28 02:28:08;;;;;;;17.60;6.20;;;;;;;21.23;71.50;101087.66;2498058;23;20369;-65
2022/05/28 02:29:11;;;;;;;13.37;5.47;;;;;;;21.20;71.24;101095.06;2497852;23;20381;-66
2022/05/28 02:30:13;;;;;;;12.60;5.50;;;;;;;21.21;71.28;101099.41;2497795;23;20404;-65
2022/05/28 02:31:20;;;;;;;15.83;5.77;;;;;;;21.29;71.08;101113.88;2497968;23;20729;-65
2022/05/28 02:32:23;;;;;;;12.67;5.60;;;;;;;21.26;71.18;101129.72;2497740;23;20362;-65
2022/05/28 02:33:24;;;;;;;13.67;5.67;;;;;;;21.18;71.14;101125.00;2497570;23;20432;-65
2022/05/28 02:34:24;;;;;;;14.80;5.57;;;;;;;21.20;70.98;101128.88;2497878;23;20920;-66
2022/05/28 02:35:25;;;;;;;10.53;5.23;;;;;;;20.64;70.84;101058.94;2497837;23;20226;-65
2022/05/28 02:36:27;;;;;;;15.27;5.90;;;;;;;21.22;71.11;101136.81;2496982;23;20157;-65
2022/05/28 02:37:28;;;;;;;13.73;5.17;;;;;;;21.21;71.15;101135.28;2497013;23;20159;-65
2022/05/28 02:38:29;;;;;;;12.90;5.47;;;;;;;21.18;70.81;101117.31;2497502;23;20380;-65
2022/05/28 02:39:30;;;;;;;17.30;5.30;;;;;;;21.19;70.71;101118.84;2497744;23;20227;-64
2022/05/28 02:40:31;;;;;;;12.70;4.90;;;;;;;21.19;70.55;101124.50;2497816;23;20394;-64
2022/05/28 02:41:31;;;;;;;17.60;5.67;;;;;;;20.64;70.48;101047.69;2497717;23;20156;-65
2022/05/28 02:42:32;;;;;;;14.03;5.60;;;;;;;21.17;70.68;101120.63;2497842;23;20152;-65
2022/05/28 02:43:33;;;;;;;20.33;5.87;;;;;;;21.12;70.62;101124.13;2497785;23;20595;-65
2022/05/28 02:44:34;;;;;;;15.07;5.30;;;;;;;21.14;70.39;101111.09;2497818;23;20151;-65
2022/05/28 02:45:34;;;;;;;17.20;4.80;;;;;;;21.15;70.04;101112.69;2497738;23;20184;-64
2022/05/28 02:46:35;;;;;;;18.57;5.60;;;;;;;21.13;70.04;101108.78;2497867;23;20496;-65
2022/05/28 02:47:36;;;;;;;16.80;5.13;;;;;;;21.07;70.00;101097.44;2497783;23;20155;-66
2022/05/28 02:48:37;;;;;;;21.83;5.73;;;;;;;21.19;69.81;101104.75;2497874;23;20163;-65
2022/05/28 02:49:37;;;;;;;18.70;5.40;;;;;;;20.76;69.64;101040.13;2497768;23;20180;-64
2022/05/28 02:50:38;;;;;;;18.17;5.03;;;;;;;21.23;69.53;101105.31;2497577;23;20379;-65
2022/05/28 02:51:38;;;;;;;15.57;5.13;;;;;;;21.11;69.41;101109.28;2497477;23;20179;-64
2022/05/28 02:52:39;;;;;;;15.10;5.43;;;;;;;20.41;69.30;101002.81;2496694;23;20548;-65
2022/05/28 02:53:40;;;;;;;18.67;5.30;;;;;;;20.63;69.16;101032.03;2497482;23;20231;-65
2022/05/28 02:54:40;;;;;;;18.27;5.13;;;;;;;21.00;68.79;101069.69;2497791;23;20152;-65
2022/05/28 02:55:41;;;;;;;14.77;5.10;;;;;;;21.12;68.81;101093.91;2497727;23;20439;-66
2022/05/28 02:56:42;;;;;;;16.43;5.17;;;;;;;21.17;68.42;101081.16;2497397;23;20179;-64
2022/05/28 02:57:42;;;;;;;14.10;5.27;;;;;;;21.12;68.41;101081.84;2497660;23;20155;-65
2022/05/28 02:58:43;;;;;;;12.70;5.03;;;;;;;21.16;68.29;101082.44;2497849;23;20151;-65
2022/05/28 02:59:43;;;;;;;13.83;4.73;;;;;;;21.20;68.24;101078.16;2497621;23;20151;-65
2022/05/28 03:00:44;;;;;;;18.53;5.10;;;;;;;21.22;67.96;101074.81;2497684;23;20236;-65
2022/05/28 03:01:44;;;;;;;14.73;5.50;;;;;;;21.24;67.65;101075.88;2497815;23;20158;-65
2022/05/28 03:02:45;;;;;;;13.57;4.80;;;;;;;21.26;67.83;101076.16;2497548;23;20192;-65
2022/05/28 03:03:46;;;;;;;13.60;5.10;;;;;;;21.32;67.94;101065.72;2497769;23;20481;-65
2022/05/28 03:04:46;;;;;;;13.37;4.83;;;;;;;21.38;67.34;101058.09;2497920;23;20152;-65
2022/05/28 03:05:48;;;;;;;15.80;4.70;;;;;;;21.28;67.35;101048.25;2497818;23;20184;-65
2022/05/28 03:06:49;;;;;;;12.07;4.67;;;;;;;21.35;67.38;101041.41;2496759;23;20175;-65
2022/05/28 03:07:49;;;;;;;13.43;5.17;;;;;;;21.36;67.57;101042.94;2497038;23;20393;-65
2022/05/28 03:08:50;;;;;;;16.27;5.90;;;;;;;20.57;67.68;100924.19;2497790;23;20152;-65
2022/05/28 03:09:50;;;;;;;15.00;5.23;;;;;;;20.94;67.53;100969.47;2496569;23;20160;-65
2022/05/28 03:10:51;;;;;;;12.97;5.13;;;;;;;21.33;67.67;101018.59;2497147;23;20234;-64
2022/05/28 03:11:51;;;;;;;12.33;5.33;;;;;;;21.38;68.04;101018.63;2497907;23;20244;-65
2022/05/28 03:12:52;;;;;;;13.50;5.33;;;;;;;21.01;68.03;100952.91;2497693;23;20160;-65
2022/05/28 03:13:52;;;;;;;13.57;4.70;;;;;;;21.44;68.33;101005.34;2497647;23;20601;-66
2022/05/28 03:14:53;;;;;;;12.77;5.03;;;;;;;20.87;68.30;100919.16;2497793;23;20149;-65
2022/05/28 03:15:53;;;;;;;14.20;5.67;;;;;;;21.51;68.68;100990.81;2496736;23;20653;-64
2022/05/28 03:16:54;;;;;;;13.90;5.80;;;;;;;21.49;68.52;100978.50;2496861;23;20253;-66
2022/05/28 03:17:55;;;;;;;15.10;5.03;;;;;;;21.51;68.83;100965.44;2497703;23;20162;-66
2022/05/28 03:18:56;;;;;;;15.37;5.90;;;;;;;21.49;69.63;100956.69;2497737;23;20679;-65
2022/05/28 03:19:59;;;;;;;11.50;5.57;;;;;;;21.03;69.54;100888.34;2497360;23;20791;-65
2022/05/28 03:20:59;;;;;;;13.67;5.63;;;;;;;21.41;69.73;100913.31;2497178;23;20153;-65
2022/05/28 03:22:00;;;;;;;19.47;6.37;;;;;;;21.41;70.30;100896.41;2497318;23;20862;-65
2022/05/28 03:23:00;;;;;;;16.80;6.20;;;;;;;21.35;70.56;100901.19;2497137;23;20236;-66
2022/05/28 03:24:01;;;;;;;19.40;6.33;;;;;;;20.90;70.87;100828.84;2497234;23;20160;-64
2022/05/28 03:25:01;;;;;;;18.10;5.63;;;;;;;21.32;70.91;100902.22;2497104;23;20152;-65
2022/05/28 03:26:17;;;;;;;12.67;5.90;;;;;;;21.23;71.16;100907.28;2497448;23;20296;-65
2022/05/28 03:27:17;;;;;;;14.13;6.10;;;;;;;21.18;71.50;100911.56;2496469;23;20159;-65
2022/05/28 03:28:18;;;;;;;17.93;6.90;;;;;;;21.11;71.65;100914.84;2496836;23;20852;-65
2022/05/28 03:29:19;;;;;;;17.03;6.70;;;;;;;21.07;71.94;100925.56;2497462;23;20163;-65
2022/05/28 03:30:19;;;;;;;14.43;6.73;;;;;;;20.68;72.24;100867.22;2497442;23;20160;-65
2022/05/28 03:31:20;;;;;;;15.63;6.13;;;;;;;21.08;72.43;100929.16;2497331;23;20597;-65
2022/05/28 03:32:20;;;;;;;16.63;6.50;;;;;;;21.03;72.64;100929.88;2497413;23;20182;-64
2022/05/28 03:33:21;;;;;;;13.40;6.97;;;;;;;20.89;72.85;100916.63;2497395;23;20186;-65
2022/05/28 03:34:21;;;;;;;15.13;6.97;;;;;;;20.97;73.36;100952.34;2497327;23;20153;-65
2022/05/28 03:35:22;;;;;;;15.70;6.97;;;;;;;20.48;73.36;100879.31;2497221;23;20687;-65
2022/05/28 03:36:24;;;;;;;15.67;7.03;;;;;;;21.00;73.77;100965.44;2497422;23;20187;-66
2022/05/28 03:37:24;;;;;;;21.30;7.43;;;;;;;20.80;73.76;100945.72;2497576;23;20158;-64
2022/05/28 03:38:25;;;;;;;16.03;7.53;;;;;;;20.60;74.00;100908.34;2497373;23;20467;-65
2022/05/28 03:39:25;;;;;;;20.40;6.97;;;;;;;21.05;74.13;100973.19;2497395;23;20159;-65
2022/05/28 03:40:26;;;;;;;17.50;6.30;;;;;;;21.16;73.85;100978.94;2497390;23;20242;-65
2022/05/28 03:41:28;;;;;;;16.93;6.70;;;;;;;20.82;73.67;100925.53;2496362;23;20164;-65
2022/05/28 03:42:29;;;;;;;15.17;6.37;;;;;;;20.61;73.81;100878.91;2496471;23;20177;-65
2022/05/28 03:43:30;;;;;;;15.53;6.47;;;;;;;21.26;73.52;100971.09;2496473;23;20899;-64
2022/05/28 03:44:30;;;;;;;16.07;7.27;;;;;;;21.31;73.93;100962.69;2496617;23;20595;-65
2022/05/28 03:45:31;;;;;;;15.77;6.97;;;;;;;21.33;73.77;100948.09;2497375;23;20381;-65
2022/05/28 03:46:35;;;;;;;18.67;7.00;;;;;;;21.36;73.30;100945.06;2497311;23;20175;-65
2022/05/28 03:47:35;;;;;;;13.73;6.53;;;;;;;21.38;73.22;100933.25;2497545;23;20149;-65
2022/05/28 03:48:36;;;;;;;17.80;7.13;;;;;;;21.38;73.32;100948.16;2496540;23;20395;-65
2022/05/28 03:49:38;;;;;;;22.13;7.40;;;;;;;21.41;73.18;100941.50;2496557;23;20267;-65
2022/05/28 03:50:39;;;;;;;15.80;7.20;;;;;;;21.38;73.14;100924.81;2497390;23;20152;-65
2022/05/28 03:51:39;;;;;;;15.60;7.50;;;;;;;21.43;73.05;100927.69;2497417;23;20381;-65
2022/05/28 03:52:40;;;;;;;15.90;7.47;;;;;;;21.48;72.86;100921.31;2497248;23;20249;-66
2022/05/28 03:53:40;;;;;;;14.90;6.97;;;;;;;21.47;72.75;100922.59;2497415;23;20159;-65
2022/05/28 03:54:44;;;;;;;15.70;7.43;;;;;;;21.49;72.79;100925.69;2497212;23;20159;-65
2022/05/28 03:55:45;;;;;;;17.00;7.17;;;;;;;21.50;72.73;100923.66;2497576;23;20231;-66
2022/05/28 03:56:47;;;;;;;12.57;7.07;;;;;;;21.21;72.81;100895.69;2497252;23;20391;-65
2022/05/28 03:57:47;;;;;;;15.87;7.33;;;;;;;21.55;72.80;100922.91;2508399;23;20160;-66
2022/05/28 03:58:50;;;;;;;17.30;6.97;;;;;;;21.55;72.78;100920.84;2508443;23;20384;-65
2022/05/28 03:59:51;;;;;;;12.43;6.63;;;;;;;21.56;72.98;100925.25;2497352;23;20157;-66
2022/05/28 04:00:51;;;;;;;17.07;7.57;;;;;;;21.54;72.91;100929.84;2497285;23;20479;-65
2022/05/28 04:01:53;;;;;;;18.30;7.37;;;;;;;21.57;73.04;100938.06;2497334;23;20588;-65
2022/05/28 04:02:53;;;;;;;19.33;6.80;;;;;;;21.52;73.08;100938.00;2497143;23;20293;-65
2022/05/28 04:03:54;;;;;;;16.07;6.43;;;;;;;21.53;72.75;100936.72;2497055;23;20514;-66
2022/05/28 04:04:55;;;;;;;18.30;6.80;;;;;;;21.56;72.75;100938.56;2497499;23;20164;-65
2022/05/28 04:05:56;;;;;;;18.83;6.47;;;;;;;21.58;72.52;100931.13;2497344;23;20218;-65
2022/05/28 04:06:58;;;;;;;14.63;6.90;;;;;;;21.57;71.96;100932.41;2497212;23;20555;-65
2022/05/28 04:07:59;;;;;;;14.47;6.57;;;;;;;21.51;72.15;100928.00;2497536;23;20152;-65
2022/05/28 04:09:00;;;;;;;13.77;6.60;;;;;;;21.57;72.19;100934.47;2497240;23;20761;-65
2022/05/28 04:10:01;;;;;;;14.47;7.10;;;;;;;21.05;72.03;100870.97;2497278;23;20388;-65
2022/05/28 04:11:01;;;;;;;22.03;7.60;;;;;;;21.47;72.01;100924.63;2497378;23;20608;-65
2022/05/28 04:12:02;;;;;;;19.93;8.20;;;;;;;21.63;71.33;100946.56;2496763;23;20168;-66
2022/05/28 04:13:03;;;;;;;18.37;7.93;;;;;;;21.62;71.19;100954.25;2496885;23;20190;-66
2022/05/28 04:14:05;;;;;;;16.67;7.83;;;;;;;21.64;70.98;100940.41;2497363;23;20387;-65
2022/05/28 04:15:07;;;;;;;18.23;7.57;;;;;;;21.65;70.78;100947.59;2497238;23;20160;-66
2022/05/28 04:16:07;;;;;;;15.60;7.83;;;;;;;21.51;70.95;100925.97;2497550;23;20385;-65
2022/05/28 04:17:08;;;;;;;15.90;7.10;;;;;;;21.65;70.45;100944.78;2497361;23;20459;-65
2022/05/28 04:18:08;;;;;;;16.87;6.87;;;;;;;21.13;70.33;100872.84;2496587;23;20432;-65
2022/05/28 04:19:09;;;;;;;23.40;7.37;;;;;;;21.59;70.02;100960.13;2496685;23;20232;-65
2022/05/28 04:20:11;;;;;;;14.37;6.37;;;;;;;21.60;69.98;100948.31;2497217;23;20518;-66
2022/05/28 04:21:12;;;;;;;13.47;5.77;;;;;;;21.51;69.66;100956.19;2497373;23;20179;-65
2022/05/28 04:22:12;;;;;;;13.17;5.93;;;;;;;20.77;69.59;100838.91;2497655;23;20467;-65
2022/05/28 04:23:13;;;;;;;11.80;4.83;;;;;;;21.50;69.87;100949.78;2497372;23;20164;-65
2022/05/28 04:24:14;;;;;;;14.10;5.70;;;;;;;21.40;69.52;100953.28;2497283;23;20512;-65
2022/05/28 04:25:14;;;;;;;14.93;5.00;;;;;;;21.09;69.10;100910.97;2497178;23;20255;-65
2022/05/28 04:26:15;;;;;;;13.33;4.50;;;;;;;20.97;69.40;100904.44;2497487;23;20153;-65
2022/05/28 04:27:15;;;;;;;11.73;5.40;;;;;;;20.41;69.40;100812.16;2497150;23;20184;-65
2022/05/28 04:28:16;;;;;;;11.60;4.37;;;;;;;20.72;69.39;100876.25;2497560;23;20156;-65
2022/05/28 04:29:16;;;;;;;9.47;4.23;;;;;;;21.32;69.27;100958.59;2497336;23;20160;-65
2022/05/28 04:30:17;;;;;;;13.87;4.60;;;;;;;21.29;69.41;100961.66;2497139;23;20513;-66
2022/05/28 04:31:17;;;;;;;13.23;4.27;;;;;;;21.21;69.29;100952.06;2497286;23;20156;-65
2022/05/28 04:32:18;;;;;;;10.23;4.63;;;;;;;21.25;69.10;100964.69;2497260;23;20191;-65
2022/05/28 04:33:18;;;;;;;11.93;4.87;;;;;;;21.22;69.18;100964.88;2497285;23;20191;-65
2022/05/28 04:34:19;;;;;;;15.60;5.03;;;;;;;21.21;69.29;100963.34;2497476;23;20619;-65
2022/05/28 04:35:20;;;;;;;14.67;4.83;;;;;;;20.86;69.22;100901.50;2497656;23;20159;-65
2022/05/28 04:36:20;;;;;;;11.70;5.20;;;;;;;21.23;69.34;100960.81;2497648;23;20156;-65
2022/05/28 04:37:20;;;;;;;15.23;5.10;;;;;;;21.22;69.42;100960.03;2497317;23;20152;-66
2022/05/28 04:38:23;;;;;;;11.13;4.50;;;;;;;21.26;69.34;100963.41;2497358;23;20164;-65
2022/05/28 04:39:23;;;;;;;14.33;4.57;;;;;;;21.30;69.50;100963.19;2497531;23;20341;-65
2022/05/28 04:40:24;;;;;;;10.83;4.40;;;;;;;21.19;69.42;100944.09;2497375;23;20385;-65
2022/05/28 04:41:24;;;;;;;11.03;4.20;;;;;;;21.34;68.94;100963.75;2497583;23;20152;-65
2022/05/28 04:42:25;;;;;;;12.33;4.57;;;;;;;21.30;68.96;100954.72;2497476;23;20505;-65
2022/05/28 04:43:25;;;;;;;11.97;3.97;;;;;;;21.24;68.95;100963.13;2497307;23;20235;-65
2022/05/28 04:44:26;;;;;;;10.73;4.23;;;;;;;21.23;69.06;100958.00;2497311;23;20188;-65
2022/05/28 04:45:26;;;;;;;12.20;4.93;;;;;;;21.27;69.06;100959.31;2497491;23;20680;-66
2022/05/28 04:46:27;;;;;;;11.97;4.50;;;;;;;21.32;69.01;100964.22;2497440;23;20152;-65
2022/05/28 04:47:27;;;;;;;11.80;4.97;;;;;;;21.27;69.15;100967.78;2497275;23;20682;-65
2022/05/28 04:48:28;;;;;;;11.50;4.70;;;;;;;21.26;69.34;100971.09;2497404;23;20167;-65
2022/05/28 04:49:29;;;;;;;13.97;4.50;;;;;;;21.33;69.41;100982.69;2497247;23;20196;-65
2022/05/28 04:50:29;;;;;;;11.27;4.30;;;;;;;20.75;69.50;100903.41;2497463;23;20153;-65
2022/05/28 04:51:30;;;;;;;13.40;4.90;;;;;;;21.31;69.73;100979.59;2497485;23;20149;-65